Time;durP1;ratioP1;P1;durP2;ratioP2;P2;SDS_P1;SDS_P2;PMS_P1;PMS_P2;Temp;Humidity;BMP_temperature;BMP_pressure;BME280_temperature;BME280_humidity;BME280_pressure;Samples;Min_cycle;Max_cycle;Signal;HPM_P1;HPM_P2
2022/07/08 00:01:44;;;;;;;8.73;1.95;;;21.60;70.40;;;;;;5013097;28;20555;-69
2022/07/08 00:04:10;;;;;;;9.80;1.85;;;21.60;70.40;;;;;;5013552;28;20032;-69
2022/07/08 00:06:35;;;;;;;11.30;2.67;;;21.60;70.60;;;;;;5013561;28;20022;-70
2022/07/08 00:09:02;;;;;;;8.90;2.15;;;21.60;70.60;;;;;;5013382;28;20053;-70
2022/07/08 00:11:27;;;;;;;6.28;1.85;;;21.60;70.60;;;;;;5013386;28;20471;-69
2022/07/08 00:13:53;;;;;;;10.13;2.55;;;21.60;70.90;;;;;;5013301;28;20041;-69
2022/07/08 00:16:18;;;;;;;7.28;2.35;;;21.60;70.80;;;;;;5013261;28;20051;-68
2022/07/08 00:18:44;;;;;;;7.93;1.88;;;21.50;70.60;;;;;;5013300;28;20022;-68
2022/07/08 00:21:09;;;;;;;9.15;2.10;;;21.50;70.70;;;;;;5013314;28;20026;-69
2022/07/08 00:23:35;;;;;;;7.05;1.80;;;21.50;70.90;;;;;;5013330;28;20053;-69
2022/07/08 00:26:00;;;;;;;12.45;2.50;;;21.50;70.90;;;;;;5013443;28;20018;-69
2022/07/08 00:28:26;;;;;;;6.95;2.25;;;21.50;71.00;;;;;;5011816;28;20541;-68
2022/07/08 00:30:52;;;;;;;6.80;1.73;;;21.50;71.10;;;;;;5013011;28;20030;-70
2022/07/08 00:33:17;;;;;;;7.70;2.10;;;21.40;71.00;;;;;;5012921;28;20038;-68
2022/07/08 00:35:43;;;;;;;5.65;1.83;;;21.40;71.20;;;;;;5013443;28;20108;-70
2022/07/08 00:38:08;;;;;;;6.40;1.85;;;21.40;71.20;;;;;;5012960;28;20103;-69
2022/07/08 00:40:34;;;;;;;7.18;1.88;;;21.40;71.30;;;;;;5013297;28;20105;-70
2022/07/08 00:43:00;;;;;;;5.90;1.67;;;21.40;71.40;;;;;;5012888;28;20510;-70
2022/07/08 00:45:26;;;;;;;10.20;2.72;;;21.30;71.40;;;;;;5012426;28;20026;-69
2022/07/08 00:47:52;;;;;;;8.73;2.05;;;21.30;71.50;;;;;;5013113;28;20033;-70
2022/07/08 00:50:17;;;;;;;9.43;1.83;;;21.30;71.60;;;;;;5012921;28;20018;-69
2022/07/08 00:52:44;;;;;;;7.88;2.10;;;21.30;71.60;;;;;;5012971;28;20026;-70
2022/07/08 00:55:10;;;;;;;8.35;1.98;;;21.30;71.70;;;;;;5013056;28;20022;-70
2022/07/08 00:57:38;;;;;;;7.07;2.15;;;21.30;71.60;;;;;;5013089;28;20033;-70
2022/07/08 01:00:04;;;;;;;8.60;2.33;;;21.30;71.60;;;;;;5012553;28;20477;-69
2022/07/08 01:02:30;;;;;;;8.70;1.63;;;21.20;71.70;;;;;;5012992;28;20030;-70
2022/07/08 01:04:56;;;;;;;10.45;2.20;;;21.20;71.70;;;;;;5012925;28;20030;-69
2022/07/08 01:07:22;;;;;;;11.10;2.22;;;21.20;71.80;;;;;;5012835;28;20101;-71
2022/07/08 01:09:48;;;;;;;8.02;2.28;;;21.20;71.80;;;;;;5015726;28;20029;-70
2022/07/08 01:12:13;;;;;;;12.90;1.98;;;21.10;71.90;;;;;;5016773;28;20026;-64
2022/07/08 01:14:39;;;;;;;10.95;2.58;;;21.10;72.00;;;;;;5016070;28;20034;-68
2022/07/08 01:17:05;;;;;;;8.93;2.35;;;21.10;72.10;;;;;;5015662;28;20128;-69
2022/07/08 01:19:32;;;;;;;9.98;2.20;;;21.10;72.20;;;;;;5014181;28;20025;-70
2022/07/08 01:21:58;;;;;;;9.00;2.40;;;21.10;72.40;;;;;;5015618;28;20014;-70
2022/07/08 01:24:24;;;;;;;12.85;2.38;;;21.10;72.30;;;;;;5013849;28;20387;-68
2022/07/08 01:26:49;;;;;;;9.32;1.95;;;21.00;72.50;;;;;;5015478;28;20471;-70
2022/07/08 01:29:15;;;;;;;9.88;2.15;;;21.00;72.40;;;;;;5015966;28;20026;-65
2022/07/08 01:31:41;;;;;;;10.13;2.08;;;21.00;72.50;;;;;;5016406;28;20113;-70
2022/07/08 01:34:06;;;;;;;6.38;2.22;;;21.00;72.50;;;;;;5016030;28;20033;-70
2022/07/08 01:36:32;;;;;;;8.25;2.50;;;20.90;72.60;;;;;;5016295;28;20483;-70
2022/07/08 01:38:57;;;;;;;6.88;2.22;;;20.90;72.70;;;;;;5016006;28;20032;-70
2022/07/08 01:41:23;;;;;;;8.70;1.98;;;20.90;72.80;;;;;;5015990;28;20097;-69
2022/07/08 01:43:50;;;;;;;8.90;2.25;;;20.90;72.90;;;;;;5015826;28;20487;-70
2022/07/08 01:46:15;;;;;;;9.20;2.30;;;20.80;72.80;;;;;;5015893;28;20017;-69
2022/07/08 01:48:41;;;;;;;8.70;2.13;;;20.80;72.70;;;;;;5015880;28;20080;-70
2022/07/08 01:51:07;;;;;;;9.35;2.38;;;20.80;72.80;;;;;;5015912;28;20018;-70
2022/07/08 01:53:32;;;;;;;7.68;2.08;;;20.80;73.00;;;;;;5015978;28;20057;-70
2022/07/08 01:55:58;;;;;;;8.07;2.20;;;20.70;73.10;;;;;;5015694;28;20467;-70
2022/07/08 01:58:23;;;;;;;9.23;2.22;;;20.70;73.10;;;;;;5015564;28;20064;-70
2022/07/08 02:00:49;;;;;;;8.80;2.40;;;20.80;73.10;;;;;;5015516;28;20053;-69
2022/07/08 02:03:15;;;;;;;9.48;2.60;;;20.70;73.20;;;;;;5015650;28;20076;-69
2022/07/08 02:05:40;;;;;;;12.18;2.40;;;20.70;73.20;;;;;;5015530;28;20037;-70
2022/07/08 02:08:06;;;;;;;8.02;2.38;;;20.70;73.30;;;;;;5014426;28;20080;-69
2022/07/08 02:13:17;;;;;;;9.07;2.60;;;20.60;73.40;;;;;;5015580;28;20459;-70
2022/07/08 02:15:44;;;;;;;7.13;2.08;;;20.60;73.40;;;;;;5015424;28;20018;-70
2022/07/08 02:18:11;;;;;;;9.23;2.17;;;20.60;73.50;;;;;;5013723;28;20105;-69
2022/07/08 02:20:36;;;;;;;9.23;2.20;;;20.50;73.60;;;;;;4996415;28;20022;-70
2022/07/08 02:23:02;;;;;;;10.57;2.28;;;20.50;73.70;;;;;;5013994;28;20032;-68
2022/07/08 02:25:27;;;;;;;5.70;2.33;;;20.50;73.70;;;;;;5013181;28;20153;-68
2022/07/08 02:27:53;;;;;;;9.10;2.33;;;20.50;73.80;;;;;;5014649;28;20026;-69
2022/07/08 02:30:19;;;;;;;6.68;1.90;;;20.40;73.90;;;;;;5015160;28;20467;-66
2022/07/08 02:32:45;;;;;;;6.53;2.05;;;20.40;74.00;;;;;;5015012;28;20025;-69
2022/07/08 02:35:10;;;;;;;8.80;2.22;;;20.40;74.00;;;;;;5015244;28;20026;-70
2022/07/08 02:37:36;;;;;;;6.43;2.08;;;20.40;74.20;;;;;;5015244;28;20030;-70
2022/07/08 02:40:01;;;;;;;7.88;2.40;;;20.40;74.10;;;;;;5015035;28;20030;-66
2022/07/08 02:42:27;;;;;;;6.40;2.65;;;20.30;74.30;;;;;;5014387;28;20015;-69
2022/07/08 02:44:53;;;;;;;6.30;2.15;;;20.40;75.00;;;;;;5014860;28;20510;-68
2022/07/08 02:47:18;;;;;;;7.88;2.08;;;20.30;74.30;;;;;;5014859;28;20432;-69
2022/07/08 02:49:44;;;;;;;7.57;2.83;;;20.30;74.40;;;;;;5014988;28;20033;-69
2022/07/08 02:52:09;;;;;;;8.45;2.15;;;20.30;74.40;;;;;;5014835;28;20502;-69
2022/07/08 02:54:35;;;;;;;7.18;2.03;;;20.20;74.50;;;;;;5014679;28;20514;-70
2022/07/08 02:57:01;;;;;;;12.90;2.30;;;20.20;74.40;;;;;;5014215;28;20022;-69
2022/07/08 02:59:27;;;;;;;8.73;2.15;;;20.20;74.60;;;;;;4997101;28;20025;-70
2022/07/08 03:01:52;;;;;;;10.10;2.15;;;20.20;74.70;;;;;;5014588;28;20061;-70
2022/07/08 03:04:18;;;;;;;10.18;2.40;;;20.20;74.60;;;;;;5014601;28;20438;-70
2022/07/08 03:06:43;;;;;;;5.72;1.90;;;20.20;74.80;;;;;;5014263;28;20026;-69
2022/07/08 03:09:09;;;;;;;7.32;1.83;;;20.10;74.90;;;;;;4996920;28;20024;-69
2022/07/08 03:11:34;;;;;;;9.55;2.58;;;20.10;74.80;;;;;;5014258;28;20153;-69
2022/07/08 03:14:00;;;;;;;7.80;2.28;;;20.10;74.90;;;;;;5014431;28;20041;-70
2022/07/08 03:16:25;;;;;;;7.85;2.28;;;20.10;75.00;;;;;;5014200;28;20022;-69
2022/07/08 03:18:51;;;;;;;9.20;2.30;;;20.00;75.00;;;;;;5014471;28;20037;-70
2022/07/08 03:21:17;;;;;;;8.02;2.60;;;20.00;75.10;;;;;;5014406;28;20037;-70
2022/07/08 03:23:42;;;;;;;7.97;2.38;;;20.00;75.20;;;;;;5014254;28;20033;-70
2022/07/08 03:26:08;;;;;;;9.07;2.67;;;20.00;75.20;;;;;;5014196;28;20049;-70
2022/07/08 03:28:33;;;;;;;9.15;2.60;;;20.00;75.30;;;;;;5014165;28;20026;-70
2022/07/08 03:30:59;;;;;;;8.30;2.67;;;20.00;75.20;;;;;;5013623;28;20061;-70
2022/07/08 03:33:24;;;;;;;8.38;2.47;;;19.90;75.20;;;;;;5014088;28;20018;-69
2022/07/08 03:35:50;;;;;;;7.40;2.38;;;20.00;75.30;;;;;;5014028;28;20372;-70
2022/07/08 03:38:17;;;;;;;8.95;2.13;;;19.90;75.30;;;;;;5014106;28;20450;-70
2022/07/08 03:43:27;;;;;;;9.07;1.83;;;19.80;75.50;;;;;;5013861;28;20065;-68
2022/07/08 03:45:52;;;;;;;8.52;2.13;;;19.80;75.60;;;;;;5013905;28;20472;-68
2022/07/08 03:48:18;;;;;;;9.13;2.22;;;19.80;75.80;;;;;;5013810;28;20021;-69
2022/07/08 03:50:43;;;;;;;8.05;2.63;;;19.80;75.80;;;;;;5013741;28;20052;-67
2022/07/08 03:53:09;;;;;;;10.35;2.45;;;19.80;75.90;;;;;;5013495;28;20033;-68
2022/07/08 03:55:34;;;;;;;11.38;2.55;;;19.80;76.00;;;;;;5013461;28;20108;-68
2022/07/08 03:58:00;;;;;;;8.05;2.15;;;19.70;76.10;;;;;;5013486;28;20041;-68
2022/07/08 04:00:26;;;;;;;9.18;2.50;;;19.80;76.20;;;;;;5013715;28;20026;-69
2022/07/08 04:02:51;;;;;;;6.60;2.10;;;19.70;76.10;;;;;;5013619;28;20025;-67
2022/07/08 04:05:17;;;;;;;6.38;2.60;;;19.70;76.20;;;;;;5013759;28;20537;-67
2022/07/08 04:07:43;;;;;;;12.23;3.33;;;19.70;76.30;;;;;;5013382;28;20068;-68
2022/07/08 04:10:09;;;;;;;9.52;2.63;;;19.70;76.40;;;;;;5013089;28;20455;-68
2022/07/08 04:12:34;;;;;;;8.13;2.53;;;19.70;76.40;;;;;;5013211;28;20109;-69
2022/07/08 04:15:00;;;;;;;6.03;2.05;;;19.70;76.50;;;;;;5013361;28;20097;-68
2022/07/08 04:17:26;;;;;;;9.95;3.22;;;19.60;76.70;;;;;;5013247;28;20029;-68
2022/07/08 04:19:51;;;;;;;9.95;2.78;;;19.60;76.70;;;;;;5013379;28;20029;-69
2022/07/08 04:22:17;;;;;;;13.52;2.83;;;19.60;76.90;;;;;;5013362;28;20026;-69
2022/07/08 04:24:42;;;;;;;7.88;2.88;;;19.60;76.90;;;;;;5013340;28;20030;-69
2022/07/08 04:27:08;;;;;;;9.32;3.13;;;19.60;77.00;;;;;;5013240;28;20033;-70
2022/07/08 04:29:33;;;;;;;9.93;2.83;;;19.50;77.00;;;;;;5013357;28;20030;-66
2022/07/08 04:31:59;;;;;;;11.07;2.70;;;19.50;77.10;;;;;;5013174;28;20024;-69
2022/07/08 04:34:25;;;;;;;9.18;2.80;;;19.50;77.10;;;;;;5013296;28;20121;-68
2022/07/08 04:36:50;;;;;;;9.27;3.20;;;19.50;77.20;;;;;;5012998;28;20037;-68
2022/07/08 04:39:16;;;;;;;5.63;2.42;;;19.50;77.30;;;;;;5013030;28;20476;-68
2022/07/08 04:41:42;;;;;;;9.23;3.10;;;19.50;77.30;;;;;;5013284;28;20577;-65
2022/07/08 04:44:07;;;;;;;10.43;2.85;;;19.50;77.50;;;;;;5015062;28;20483;-67
2022/07/08 04:46:33;;;;;;;9.18;2.90;;;19.50;77.50;;;;;;5017337;28;20029;-63
2022/07/08 04:48:58;;;;;;;7.97;2.90;;;19.50;77.50;;;;;;5016955;28;20033;-66
2022/07/08 04:51:24;;;;;;;9.73;2.65;;;19.50;77.80;;;;;;5016684;28;20428;-64
2022/07/08 04:53:49;;;;;;;9.15;2.90;;;19.50;78.00;;;;;;5016849;28;20041;-69
2022/07/08 04:56:15;;;;;;;8.70;2.45;;;19.50;78.10;;;;;;5017015;28;20026;-63
2022/07/08 04:58:41;;;;;;;9.73;2.97;;;19.40;78.20;;;;;;5016734;28;20049;-67
2022/07/08 05:01:07;;;;;;;8.10;2.78;;;19.50;78.20;;;;;;5015089;28;20030;-65
2022/07/08 05:03:32;;;;;;;9.27;3.13;;;19.40;78.40;;;;;;5016469;28;20018;-64
2022/07/08 05:05:58;;;;;;;6.85;2.80;;;19.50;78.50;;;;;;5017027;28;20368;-64
2022/07/08 05:08:23;;;;;;;9.55;2.63;;;19.40;78.60;;;;;;5014651;28;20026;-64
2022/07/08 05:10:49;;;;;;;9.18;2.92;;;19.40;78.80;;;;;;5014238;28;20037;-69
2022/07/08 05:13:14;;;;;;;9.73;2.55;;;19.40;78.90;;;;;;5016596;28;20104;-68
2022/07/08 05:15:40;;;;;;;10.25;2.85;;;19.40;78.90;;;;;;5016419;28;20037;-69
2022/07/08 05:18:06;;;;;;;12.38;3.55;;;19.40;78.90;;;;;;5016707;28;20033;-68
2022/07/08 05:20:32;;;;;;;9.15;3.20;;;19.40;79.10;;;;;;5016182;28;20590;-63
2022/07/08 05:22:57;;;;;;;12.27;3.25;;;19.40;79.10;;;;;;5016439;28;20029;-63
2022/07/08 05:25:24;;;;;;;10.88;2.95;;;19.50;79.20;;;;;;5016142;28;20025;-62
2022/07/08 05:27:49;;;;;;;10.40;2.90;;;19.40;79.40;;;;;;5016301;28;20353;-62
2022/07/08 05:30:15;;;;;;;7.20;3.00;;;19.40;79.40;;;;;;5016369;28;20121;-63
2022/07/08 05:32:41;;;;;;;7.78;2.83;;;19.40;79.70;;;;;;5016305;28;20467;-64
2022/07/08 05:35:07;;;;;;;12.32;3.10;;;19.40;79.70;;;;;;5015867;28;20040;-63
2022/07/08 05:37:36;;;;;;;13.20;3.38;;;19.40;79.70;;;;;;5016329;28;20104;-64
2022/07/08 05:40:02;;;;;;;9.45;3.28;;;19.40;79.70;;;;;;5015869;28;20026;-63
2022/07/08 05:42:28;;;;;;;8.65;2.60;;;19.50;80.00;;;;;;5016033;28;20030;-67
2022/07/08 05:44:53;;;;;;;11.25;2.90;;;19.50;80.30;;;;;;5015970;28;20034;-66
2022/07/08 05:47:19;;;;;;;10.32;2.67;;;19.50;80.50;;;;;;5015900;28;20054;-63
2022/07/08 05:49:44;;;;;;;8.75;3.00;;;19.50;80.60;;;;;;5015660;28;20525;-68
2022/07/08 05:52:10;;;;;;;10.57;3.10;;;19.50;80.80;;;;;;5015738;28;20032;-65
2022/07/08 05:54:36;;;;;;;16.13;3.53;;;19.50;81.00;;;;;;5015324;28;20068;-68
2022/07/08 05:57:02;;;;;;;9.02;3.60;;;19.50;81.10;;;;;;5015906;28;20403;-67
2022/07/08 05:59:29;;;;;;;7.13;2.80;;;19.60;81.30;;;;;;5015765;28;20033;-68
2022/07/08 06:01:55;;;;;;;8.55;3.00;;;19.50;81.40;;;;;;5015415;28;20467;-68
2022/07/08 06:04:21;;;;;;;12.48;3.03;;;19.60;81.60;;;;;;5015543;28;20598;-64
2022/07/08 06:06:46;;;;;;;12.02;2.38;;;19.60;82.00;;;;;;5015633;28;20108;-68
2022/07/08 06:09:12;;;;;;;7.57;2.42;;;19.60;82.30;;;;;;5015668;28;20391;-68
2022/07/08 06:11:38;;;;;;;8.23;2.45;;;19.60;82.40;;;;;;5015074;28;20494;-66
2022/07/08 06:14:04;;;;;;;9.80;2.28;;;19.70;82.60;;;;;;5015451;28;20101;-67
2022/07/08 06:16:29;;;;;;;12.48;3.03;;;19.70;82.60;;;;;;5015592;28;20453;-67
2022/07/08 06:18:55;;;;;;;8.65;2.28;;;19.70;82.70;;;;;;5015405;28;20029;-64
2022/07/08 06:21:21;;;;;;;7.78;1.77;;;19.80;82.80;;;;;;5015244;28;20021;-69
2022/07/08 06:23:46;;;;;;;8.65;2.05;;;19.80;83.10;;;;;;5015336;28;20387;-67
2022/07/08 06:26:12;;;;;;;6.78;1.83;;;19.90;83.00;;;;;;5015391;28;20467;-66
2022/07/08 06:28:37;;;;;;;7.78;2.20;;;19.90;83.10;;;;;;5015455;28;20036;-69
2022/07/08 06:31:03;;;;;;;7.00;2.05;;;20.00;83.00;;;;;;5014930;28;20072;-69
2022/07/08 06:33:29;;;;;;;7.63;1.48;;;20.00;82.80;;;;;;5014934;28;20065;-69
2022/07/08 06:35:54;;;;;;;7.32;1.77;;;20.10;82.80;;;;;;5014985;28;20084;-69
2022/07/08 06:38:20;;;;;;;8.63;1.67;;;20.10;82.80;;;;;;5014856;28;20456;-68
2022/07/08 06:40:45;;;;;;;9.73;2.15;;;20.20;82.70;;;;;;5014963;28;20034;-68
2022/07/08 06:43:11;;;;;;;6.20;1.50;;;20.20;82.70;;;;;;5015098;28;20038;-68
2022/07/08 06:45:37;;;;;;;6.68;2.00;;;20.20;82.50;;;;;;5014474;28;20037;-68
2022/07/08 06:48:03;;;;;;;4.07;1.60;;;20.30;82.50;;;;;;5014606;28;20030;-69
2022/07/08 06:50:29;;;;;;;6.57;1.67;;;20.40;82.50;;;;;;5014674;28;20049;-67
2022/07/08 06:52:55;;;;;;;4.85;1.33;;;20.40;82.20;;;;;;5014625;28;20080;-68
2022/07/08 06:55:21;;;;;;;7.05;1.48;;;20.50;82.10;;;;;;5014899;28;20030;-69
2022/07/08 06:57:47;;;;;;;4.40;1.70;;;20.50;82.60;;;;;;5014703;28;20066;-69
2022/07/08 07:00:13;;;;;;;6.25;1.58;;;20.60;81.90;;;;;;5014617;28;20502;-69
2022/07/08 07:02:39;;;;;;;3.25;1.00;;;20.60;81.50;;;;;;5014123;28;20379;-69
2022/07/08 07:05:06;;;;;;;7.13;2.00;;;20.70;81.60;;;;;;5014585;28;20029;-69
2022/07/08 07:07:31;;;;;;;4.25;1.23;;;20.80;81.70;;;;;;5013720;28;20022;-71
2022/07/08 07:09:57;;;;;;;3.40;1.52;;;20.80;81.30;;;;;;5014294;28;20036;-71
2022/07/08 07:12:23;;;;;;;3.88;1.13;;;20.90;81.10;;;;;;5014210;28;20028;-71
2022/07/08 07:14:48;;;;;;;4.90;1.55;;;20.90;81.20;;;;;;4996596;28;20487;-69
2022/07/08 07:17:21;;;;;;;3.17;1.35;;;21.00;80.90;;;;;;5014057;28;20402;-69
2022/07/08 07:19:47;;;;;;;4.97;1.58;;;21.00;80.80;;;;;;5014289;28;20036;-68
2022/07/08 07:22:14;;;;;;;3.92;1.05;;;21.10;80.60;;;;;;5014214;28;20080;-69
2022/07/08 07:24:40;;;;;;;7.43;1.58;;;21.10;80.20;;;;;;5014113;28;20022;-69
2022/07/08 07:27:05;;;;;;;5.88;1.48;;;21.20;80.20;;;;;;5014082;28;20028;-68
2022/07/08 07:29:31;;;;;;;4.28;1.40;;;21.20;80.00;;;;;;5014330;28;20022;-68
2022/07/08 07:31:57;;;;;;;6.53;1.45;;;21.30;79.70;;;;;;5013512;28;20498;-69
2022/07/08 07:34:22;;;;;;;3.33;0.90;;;21.30;79.50;;;;;;5013722;28;20038;-69
2022/07/08 07:36:48;;;;;;;4.82;1.23;;;21.40;79.50;;;;;;5014073;28;20538;-68
2022/07/08 07:39:13;;;;;;;4.07;1.10;;;21.50;79.30;;;;;;5014127;28;20479;-69
2022/07/08 07:41:39;;;;;;;6.38;1.30;;;21.50;79.10;;;;;;5013679;28;20483;-68
2022/07/08 07:44:06;;;;;;;3.35;1.00;;;21.60;78.90;;;;;;5013636;28;20045;-68
2022/07/08 07:46:32;;;;;;;4.28;1.40;;;21.60;78.70;;;;;;4995906;28;20504;-69
2022/07/08 07:48:57;;;;;;;5.32;1.20;;;21.70;78.50;;;;;;5013715;28;20033;-69
2022/07/08 07:51:23;;;;;;;6.60;1.30;;;21.70;78.30;;;;;;5013779;28;20026;-69
2022/07/08 07:53:49;;;;;;;3.80;1.02;;;21.80;78.20;;;;;;5013450;28;20030;-67
2022/07/08 07:56:14;;;;;;;4.18;1.27;;;21.80;77.80;;;;;;5013953;28;20033;-69
2022/07/08 07:58:40;;;;;;;3.20;1.10;;;21.90;77.70;;;;;;5013775;28;20120;-70
2022/07/08 08:01:06;;;;;;;3.88;1.25;;;21.90;77.50;;;;;;5013227;28;20037;-67
2022/07/08 08:03:32;;;;;;;3.20;0.90;;;22.00;77.30;;;;;;5013455;28;20026;-66
2022/07/08 08:05:59;;;;;;;3.70;1.00;;;22.00;77.00;;;;;;5013649;28;20050;-65
2022/07/08 08:08:24;;;;;;;5.50;1.40;;;22.10;76.80;;;;;;5013465;28;20014;-69
2022/07/08 08:10:53;;;;;;;5.20;1.25;;;22.10;76.60;;;;;;5013642;28;20041;-67
2022/07/08 08:13:19;;;;;;;3.90;1.30;;;22.20;76.30;;;;;;5012909;28;20049;-69
2022/07/08 08:15:45;;;;;;;4.80;1.08;;;22.20;76.10;;;;;;5013310;28;20510;-69
2022/07/08 08:18:10;;;;;;;2.95;1.15;;;22.30;76.00;;;;;;5012956;28;20117;-70
2022/07/08 08:20:36;;;;;;;3.67;0.77;;;22.30;75.80;;;;;;5013375;28;20030;-68
2022/07/08 08:23:02;;;;;;;2.85;0.75;;;22.40;75.60;;;;;;5013116;28;20547;-70
2022/07/08 08:25:28;;;;;;;3.35;1.25;;;22.40;75.40;;;;;;5013405;28;20038;-71
2022/07/08 08:27:54;;;;;;;3.70;1.25;;;22.50;75.00;;;;;;5013180;28;20383;-70
2022/07/08 08:30:20;;;;;;;2.63;0.93;;;22.50;74.90;;;;;;5012977;28;20076;-70
2022/07/08 08:32:46;;;;;;;5.18;1.10;;;22.60;74.80;;;;;;5013162;28;20030;-70
2022/07/08 08:35:11;;;;;;;4.78;1.13;;;22.60;74.50;;;;;;4995810;28;20085;-70
2022/07/08 08:37:37;;;;;;;4.95;1.20;;;22.70;74.30;;;;;;5013159;28;20105;-69
2022/07/08 08:40:04;;;;;;;3.40;0.90;;;22.70;73.80;;;;;;4995511;28;20549;-68
2022/07/08 08:42:31;;;;;;;2.50;1.10;;;22.70;73.90;;;;;;5013249;28;20054;-69
2022/07/08 08:44:58;;;;;;;5.38;1.23;;;22.80;73.90;;;;;;5012634;28;20030;-70
2022/07/08 08:47:28;;;;;;;2.38;1.08;;;22.80;73.60;;;;;;5012859;28;20093;-70
2022/07/08 08:49:56;;;;;;;2.58;0.88;;;22.90;73.60;;;;;;5012838;28;20074;-70
2022/07/08 08:52:23;;;;;;;2.50;0.80;;;22.90;73.30;;;;;;5013138;28;20030;-70
2022/07/08 08:54:50;;;;;;;3.30;0.95;;;23.00;73.20;;;;;;5012893;28;20117;-70
2022/07/08 08:57:16;;;;;;;2.63;0.80;;;23.00;73.00;;;;;;5012970;28;20508;-70
2022/07/08 08:59:44;;;;;;;4.70;0.93;;;23.00;72.90;;;;;;5012529;28;20081;-70
2022/07/08 09:02:11;;;;;;;3.63;1.15;;;23.10;72.80;;;;;;5012759;28;20026;-69
2022/07/08 09:04:37;;;;;;;3.45;1.05;;;23.10;72.70;;;;;;4995255;28;20077;-70
2022/07/08 09:07:03;;;;;;;5.05;1.05;;;23.10;72.50;;;;;;5012866;28;20026;-69
2022/07/08 09:09:29;;;;;;;4.60;0.88;;;23.20;72.40;;;;;;5012768;28;20443;-70
2022/07/08 09:11:54;;;;;;;4.63;1.02;;;23.20;72.30;;;;;;5012828;28;20044;-73
2022/07/08 09:14:21;;;;;;;7.78;1.60;;;23.30;71.20;;;;;;5012306;28;20049;-72
2022/07/08 09:17:10;;;;;;;6.03;1.45;;;23.20;71.40;;;;;;5012935;28;20022;-72
2022/07/08 09:19:37;;;;;;;5.63;0.85;;;23.20;71.60;;;;;;5014196;28;20472;-73
2022/07/08 09:22:05;;;;;;;7.20;1.25;;;23.20;71.30;;;;;;4995285;28;20394;-73
2022/07/08 09:24:30;;;;;;;3.75;1.10;;;23.30;71.20;;;;;;5012878;28;20486;-72
2022/07/08 09:26:56;;;;;;;5.35;1.20;;;23.30;71.10;;;;;;5012463;28;20029;-72
2022/07/08 09:29:22;;;;;;;3.15;1.15;;;23.30;70.90;;;;;;5013455;28;20034;-72
2022/07/08 09:31:48;;;;;;;3.63;1.30;;;23.40;70.80;;;;;;5016373;28;20104;-72
2022/07/08 09:34:16;;;;;;;7.25;1.23;;;23.40;70.60;;;;;;5016153;28;20114;-72
2022/07/08 09:36:48;;;;;;;3.97;1.20;;;23.40;70.50;;;;;;4998823;28;20014;-72
2022/07/08 09:39:32;;;;;;;5.43;1.02;;;23.40;70.30;;;;;;5015911;28;20040;-73
2022/07/08 09:41:57;;;;;;;3.72;1.02;;;23.50;70.50;;;;;;5016113;28;20034;-73
2022/07/08 09:44:23;;;;;;;4.07;1.15;;;23.50;70.90;;;;;;5015913;28;20045;-71
2022/07/08 09:46:49;;;;;;;5.68;1.48;;;23.50;70.30;;;;;;5016167;28;20030;-71
2022/07/08 09:49:30;;;;;;;6.30;1.25;;;23.50;70.30;;;;;;5015795;28;20029;-72
2022/07/08 09:51:57;;;;;;;8.63;1.38;;;23.50;70.30;;;;;;5015975;28;20084;-73
2022/07/08 09:54:23;;;;;;;8.43;1.80;;;23.70;70.50;;;;;;5015704;28;20498;-71
2022/07/08 09:57:05;;;;;;;6.15;1.40;;;23.80;70.60;;;;;;5015837;28;20026;-73
2022/07/08 09:59:32;;;;;;;2.80;0.93;;;24.00;70.00;;;;;;5015787;28;20030;-73
2022/07/08 10:01:59;;;;;;;6.10;1.40;;;24.00;69.10;;;;;;5015827;28;20022;-73
2022/07/08 10:04:25;;;;;;;7.32;1.35;;;24.10;69.10;;;;;;5015451;28;20057;-73
2022/07/08 10:06:52;;;;;;;8.38;1.27;;;24.10;69.10;;;;;;5015644;28;20021;-74
2022/07/08 10:09:19;;;;;;;5.75;1.27;;;24.10;69.60;;;;;;4998019;28;20021;-72
2022/07/08 10:11:46;;;;;;;5.68;1.15;;;24.10;69.30;;;;;;5014971;28;20026;-73
2022/07/08 10:14:12;;;;;;;7.47;1.35;;;24.10;69.50;;;;;;5015385;28;20049;-73
2022/07/08 10:16:39;;;;;;;3.92;1.02;;;24.10;69.60;;;;;;5015364;28;20024;-73
2022/07/08 10:19:09;;;;;;;3.90;0.98;;;24.10;69.10;;;;;;5015499;28;20033;-72
2022/07/08 10:21:38;;;;;;;4.47;1.30;;;24.10;68.90;;;;;;5015165;28;20026;-72
2022/07/08 10:24:10;;;;;;;4.50;1.20;;;24.10;69.00;;;;;;5015401;28;20025;-73
2022/07/08 10:26:38;;;;;;;6.95;0.98;;;24.20;68.70;;;;;;5015007;28;20073;-72
2022/07/08 10:29:05;;;;;;;4.28;1.48;;;24.20;68.50;;;;;;5015493;28;20097;-73
2022/07/08 10:31:43;;;;;;;5.18;1.00;;;24.30;67.20;;;;;;5015088;28;20050;-72
2022/07/08 10:34:11;;;;;;;4.63;0.98;;;24.30;67.30;;;;;;5015026;28;20069;-72
2022/07/08 10:36:53;;;;;;;4.85;0.90;;;24.30;68.00;;;;;;5015188;28;20022;-72
2022/07/08 10:39:25;;;;;;;;;;;24.30;67.20;;;;;;5015900;28;20113;-72
2022/07/08 10:42:10;;;;;;;5.85;1.08;;;24.30;67.80;;;;;;5014322;28;19996;-72
2022/07/08 10:44:45;;;;;;;5.57;1.20;;;24.30;68.60;;;;;;5015277;28;20113;-73
2022/07/08 10:47:16;;;;;;;3.22;1.00;;;24.30;67.90;;;;;;5015009;28;20130;-72
2022/07/08 10:49:47;;;;;;;2.55;0.88;;;24.20;68.80;;;;;;5014890;28;20014;-72
2022/07/08 10:52:14;;;;;;;2.75;0.73;;;24.30;68.80;;;;;;5014773;28;20030;-73
2022/07/08 10:54:40;;;;;;;4.18;1.00;;;24.30;68.70;;;;;;5014599;28;20487;-72
2022/07/08 10:57:09;;;;;;;4.15;0.95;;;24.30;67.00;;;;;;5014818;28;20018;-72
2022/07/08 10:59:38;;;;;;;2.65;1.13;;;24.40;66.50;;;;;;5014863;28;20447;-73
2022/07/08 11:02:12;;;;;;;4.00;0.88;;;24.40;66.60;;;;;;5014584;28;20395;-72
2022/07/08 11:04:37;;;;;;;5.57;1.02;;;24.30;68.40;;;;;;5014728;28;20068;-73
2022/07/08 11:07:14;;;;;;;3.67;1.10;;;24.20;69.60;;;;;;5014447;28;20049;-72
2022/07/08 11:09:41;;;;;;;5.97;1.10;;;24.20;69.10;;;;;;5014209;28;20038;-72
2022/07/08 11:12:28;;;;;;;3.30;0.80;;;24.40;66.70;;;;;;5014181;28;20061;-73
2022/07/08 11:14:55;;;;;;;3.75;1.23;;;24.30;68.40;;;;;;5014229;28;20084;-73
2022/07/08 11:17:21;;;;;;;3.60;1.17;;;24.40;68.10;;;;;;5014081;28;20025;-73
2022/07/08 11:19:48;;;;;;;4.32;1.10;;;24.40;67.70;;;;;;5014453;28;20387;-74
2022/07/08 11:22:14;;;;;;;5.90;1.13;;;24.40;67.60;;;;;;5014227;28;20029;-72
2022/07/08 11:24:42;;;;;;;3.13;0.80;;;24.40;67.60;;;;;;5014004;28;20077;-74
2022/07/08 11:27:08;;;;;;;6.13;1.45;;;24.40;68.40;;;;;;5014152;28;20129;-72
2022/07/08 11:29:34;;;;;;;6.78;1.25;;;24.30;68.90;;;;;;5014242;28;20482;-73
2022/07/08 11:32:02;;;;;;;4.93;1.00;;;24.20;69.10;;;;;;5013954;28;20361;-73
2022/07/08 11:34:28;;;;;;;4.30;1.13;;;24.20;69.10;;;;;;4996364;28;20044;-72
2022/07/08 11:36:55;;;;;;;4.65;1.08;;;24.20;68.90;;;;;;5014212;28;20018;-72
2022/07/08 11:39:20;;;;;;;6.68;1.17;;;24.30;69.20;;;;;;5013628;28;20026;-73
2022/07/08 11:41:46;;;;;;;4.65;1.15;;;24.20;69.10;;;;;;5013798;28;20377;-73
2022/07/08 11:44:12;;;;;;;5.47;1.00;;;24.20;69.30;;;;;;4996216;28;20108;-72
2022/07/08 11:46:46;;;;;;;2.40;0.85;;;24.20;69.20;;;;;;5013878;28;20053;-72
2022/07/08 11:49:11;;;;;;;3.42;0.90;;;24.20;69.20;;;;;;5014074;28;20416;-72
2022/07/08 11:51:37;;;;;;;4.68;1.27;;;24.20;69.40;;;;;;5013927;28;20463;-73
2022/07/08 11:54:02;;;;;;;3.38;0.98;;;24.20;69.60;;;;;;5013243;28;20392;-72
2022/07/08 11:56:30;;;;;;;4.28;0.80;;;24.20;69.50;;;;;;5013887;28;20044;-72
2022/07/08 11:58:56;;;;;;;3.50;1.02;;;24.30;69.20;;;;;;5014093;28;20018;-72
2022/07/08 12:01:22;;;;;;;4.55;0.80;;;24.20;69.20;;;;;;5013894;28;20026;-73
2022/07/08 12:03:48;;;;;;;3.72;0.70;;;24.20;69.40;;;;;;5014114;28;20053;-73
2022/07/08 12:06:25;;;;;;;4.95;0.63;;;24.20;69.40;;;;;;5014228;28;20384;-73
2022/07/08 12:08:51;;;;;;;3.22;0.70;;;24.30;69.60;;;;;;5014036;28;20037;-73
2022/07/08 12:11:19;;;;;;;3.10;0.80;;;24.20;69.60;;;;;;4995943;28;20573;-72
2022/07/08 12:13:46;;;;;;;3.30;0.80;;;24.30;69.60;;;;;;5013270;28;20085;-73
2022/07/08 12:16:32;;;;;;;2.58;0.82;;;24.20;69.40;;;;;;5013395;28;20033;-73
2022/07/08 12:19:00;;;;;;;3.92;1.10;;;24.30;70.10;;;;;;5013360;28;20090;-72
2022/07/08 12:21:26;;;;;;;3.80;0.70;;;24.30;69.30;;;;;;5013059;28;20387;-73
2022/07/08 12:23:59;;;;;;;3.92;0.85;;;24.20;69.30;;;;;;5013295;28;20092;-72
2022/07/08 12:26:26;;;;;;;4.93;1.02;;;24.30;69.40;;;;;;5013355;28;20050;-72
2022/07/08 12:28:51;;;;;;;2.58;0.93;;;24.30;69.60;;;;;;5013416;28;20033;-73
2022/07/08 12:31:40;;;;;;;3.65;0.90;;;24.30;69.50;;;;;;5013405;28;20033;-72
2022/07/08 12:34:09;;;;;;;2.80;0.85;;;24.30;69.40;;;;;;5013671;28;20501;-73
2022/07/08 12:36:35;;;;;;;1.17;0.40;;;24.30;69.50;;;;;;4995443;28;20070;-74
2022/07/08 12:39:10;;;;;;;3.78;0.88;;;24.30;69.60;;;;;;5013257;28;20522;-73
2022/07/08 12:41:36;;;;;;;4.15;0.80;;;24.30;69.30;;;;;;5013354;28;20026;-73
2022/07/08 12:44:30;;;;;;;5.25;0.70;;;24.30;69.10;;;;;;5013099;28;20034;-73
2022/07/08 12:46:56;;;;;;;3.28;0.63;;;24.30;69.20;;;;;;5013400;28;20312;-73
2022/07/08 12:49:30;;;;;;;2.60;0.60;;;24.30;69.30;;;;;;5013416;28;20018;-73